createdAt,value
2023-05-24T00:01:59.995Z,3.03
2023-05-24T00:04:30.635Z,3.30
2023-05-24T00:06:58.313Z,2.77
2023-05-24T00:09:24.878Z,2.93
2023-05-24T00:11:51.476Z,3.30
2023-05-24T00:14:18.030Z,2.87
2023-05-24T00:16:46.827Z,2.90
2023-05-24T00:19:18.665Z,2.47
2023-05-24T00:21:46.128Z,3.60
2023-05-24T00:24:17.339Z,3.37
2023-05-24T00:26:44.086Z,2.70
2023-05-24T00:29:10.688Z,2.87
2023-05-24T00:31:37.520Z,2.70
2023-05-24T00:34:04.086Z,2.90
2023-05-24T00:36:31.422Z,2.93
2023-05-24T00:38:57.939Z,3.07
2023-05-24T00:41:24.488Z,3.20
2023-05-24T00:43:51.098Z,3.13
2023-05-24T00:46:44.136Z,3.00
2023-05-24T00:49:10.749Z,2.93
2023-05-24T00:51:38.618Z,2.70
2023-05-24T00:54:05.243Z,3.70
2023-05-24T00:56:34.398Z,3.37
2023-05-24T00:59:01.568Z,3.00
2023-05-24T01:01:31.369Z,2.87
2023-05-24T01:04:00.227Z,3.37
2023-05-24T01:06:28.430Z,3.57
2023-05-24T01:09:08.370Z,3.40
2023-05-24T01:11:53.702Z,3.17
2023-05-24T01:14:29.371Z,3.10
2023-05-24T01:17:05.376Z,2.93
2023-05-24T01:19:43.562Z,3.30
2023-05-24T01:22:29.118Z,3.17
2023-05-24T01:24:55.659Z,3.37
2023-05-24T01:27:23.055Z,2.90
2023-05-24T01:29:53.623Z,3.30
2023-05-24T01:32:20.633Z,3.20
2023-05-24T01:34:47.320Z,3.40
2023-05-24T01:37:14.004Z,3.93
2023-05-24T01:39:40.862Z,4.30
2023-05-24T01:42:26.052Z,4.60
2023-05-24T01:45:04.819Z,4.73
2023-05-24T01:47:39.335Z,3.90
2023-05-24T01:50:18.718Z,4.13
2023-05-24T01:52:46.267Z,4.87
2023-05-24T01:55:15.272Z,4.10
2023-05-24T01:57:44.032Z,3.97
2023-05-24T02:00:11.574Z,4.07
2023-05-24T02:02:38.475Z,4.00
2023-05-24T02:05:05.534Z,3.43
2023-05-24T02:07:32.056Z,3.57
2023-05-24T02:09:58.574Z,3.17
2023-05-24T02:12:25.109Z,3.87
2023-05-24T02:14:51.663Z,3.53
2023-05-24T02:17:18.475Z,3.93
2023-05-24T02:19:45.063Z,3.83
2023-05-24T02:22:12.861Z,3.93
2023-05-24T02:24:40.580Z,3.60
2023-05-24T02:27:07.449Z,3.73
2023-05-24T02:29:34.021Z,3.60
2023-05-24T02:32:00.798Z,3.90
2023-05-24T02:34:27.603Z,4.30
2023-05-24T02:36:54.568Z,4.30
2023-05-24T02:39:21.197Z,4.50
2023-05-24T02:41:47.773Z,4.70
2023-05-24T02:44:14.291Z,4.30
2023-05-24T02:46:40.976Z,4.03
2023-05-24T02:49:07.588Z,4.50
2023-05-24T02:51:34.141Z,4.20
2023-05-24T02:54:01.515Z,5.13
2023-05-24T02:56:29.351Z,4.53
2023-05-24T02:58:56.610Z,4.70
2023-05-24T03:01:23.456Z,4.90
2023-05-24T03:03:50.084Z,4.30
2023-05-24T03:06:16.770Z,5.07
2023-05-24T03:08:43.442Z,5.53
2023-05-24T03:11:09.991Z,4.40
2023-05-24T03:13:36.636Z,5.40
2023-05-24T03:16:03.206Z,4.23
2023-05-24T03:18:29.769Z,5.07
2023-05-24T03:20:56.319Z,4.70
2023-05-24T03:23:22.871Z,4.03
2023-05-24T03:25:49.399Z,4.83
2023-05-24T03:28:16.013Z,4.50
2023-05-24T03:30:42.627Z,5.10
2023-05-24T03:33:09.581Z,5.07
2023-05-24T03:35:36.163Z,5.17
2023-05-24T03:38:02.693Z,5.70
2023-05-24T03:40:32.592Z,4.67
2023-05-24T03:43:00.611Z,5.30
2023-05-24T03:45:38.509Z,5.00
2023-05-24T03:48:06.169Z,6.13
2023-05-24T03:50:32.739Z,5.40
2023-05-24T03:52:59.327Z,5.40
2023-05-24T03:55:25.861Z,5.40
2023-05-24T03:57:52.437Z,4.77
2023-05-24T04:00:19.082Z,5.37
2023-05-24T04:02:46.177Z,4.87
2023-05-24T04:05:15.261Z,4.40
2023-05-24T04:07:42.495Z,4.30
2023-05-24T04:10:09.494Z,4.53
2023-05-24T04:12:36.428Z,4.37
2023-05-24T04:15:03.673Z,4.30
2023-05-24T04:17:35.125Z,5.27
2023-05-24T04:20:02.264Z,4.23
2023-05-24T04:22:29.737Z,4.80
2023-05-24T04:24:56.288Z,5.07
2023-05-24T04:27:22.949Z,4.87
2023-05-24T04:29:50.086Z,4.50
2023-05-24T04:32:18.032Z,4.67
2023-05-24T04:34:46.144Z,5.20
2023-05-24T04:37:14.354Z,5.20
2023-05-24T04:39:41.792Z,5.83
2023-05-24T04:42:08.357Z,4.90
2023-05-24T04:44:34.996Z,5.27
2023-05-24T04:47:04.028Z,5.43
2023-05-24T04:49:30.657Z,4.97
2023-05-24T04:51:57.276Z,5.20
2023-05-24T04:54:24.424Z,5.10
2023-05-24T04:56:50.989Z,5.67
2023-05-24T04:59:17.578Z,6.90
2023-05-24T05:01:44.833Z,5.00
2023-05-24T05:04:12.869Z,5.33
2023-05-24T05:06:40.683Z,6.00
2023-05-24T05:09:11.928Z,5.97
2023-05-24T05:11:38.639Z,6.07
2023-05-24T05:14:05.552Z,5.40
2023-05-24T05:16:33.117Z,5.17
2023-05-24T05:18:59.687Z,5.23
2023-05-24T05:21:26.211Z,5.17
2023-05-24T05:23:52.769Z,5.40
2023-05-24T05:26:19.276Z,5.47
2023-05-24T05:28:46.297Z,5.57
2023-05-24T05:31:12.947Z,5.60
2023-05-24T05:33:39.559Z,5.57
2023-05-24T05:36:06.835Z,4.90
2023-05-24T05:38:33.387Z,5.80
2023-05-24T05:40:59.933Z,5.30
2023-05-24T05:43:26.491Z,4.93
2023-05-24T05:45:53.016Z,4.80
2023-05-24T05:48:19.634Z,5.10
2023-05-24T05:50:46.179Z,4.60
2023-05-24T05:53:12.768Z,5.90
2023-05-24T05:55:39.240Z,6.03
2023-05-24T05:58:05.825Z,5.20
2023-05-24T06:00:32.355Z,5.40
2023-05-24T06:02:58.981Z,5.20
2023-05-24T06:05:25.647Z,5.23
2023-05-24T06:07:52.186Z,5.17
2023-05-24T06:10:18.710Z,5.93
2023-05-24T06:12:45.235Z,5.30
2023-05-24T06:15:12.322Z,5.10
2023-05-24T06:17:38.966Z,5.90
2023-05-24T06:20:15.525Z,6.23
2023-05-24T06:22:43.036Z,5.80
2023-05-24T06:25:09.668Z,6.60
2023-05-24T06:27:38.765Z,6.20
2023-05-24T06:30:05.742Z,6.77
2023-05-24T06:32:32.478Z,5.93
2023-05-24T06:34:59.037Z,6.03
2023-05-24T06:37:25.765Z,5.87
2023-05-24T06:39:52.414Z,6.53
2023-05-24T06:42:19.064Z,6.30
2023-05-24T06:44:45.685Z,5.40
2023-05-24T06:47:12.322Z,5.37
2023-05-24T06:49:39.305Z,7.37
2023-05-24T06:52:07.962Z,7.37
2023-05-24T06:54:34.712Z,6.27
2023-05-24T06:57:01.252Z,6.00
2023-05-24T06:59:27.836Z,7.37
2023-05-24T07:01:59.506Z,7.07
2023-05-24T07:04:28.547Z,8.37
2023-05-24T07:06:55.240Z,7.80
2023-05-24T07:09:21.794Z,7.60
2023-05-24T07:11:48.748Z,6.97
2023-05-24T07:14:15.733Z,7.10
2023-05-24T07:16:42.355Z,6.37
2023-05-24T07:19:08.955Z,8.63
2023-05-24T07:21:36.280Z,8.83
2023-05-24T07:24:04.112Z,9.23
2023-05-24T07:26:30.696Z,7.83
2023-05-24T07:28:57.300Z,8.20
2023-05-24T07:31:23.845Z,5.47
2023-05-24T07:33:52.900Z,5.33
2023-05-24T07:36:19.451Z,6.73
2023-05-24T07:38:50.335Z,6.23
2023-05-24T07:41:17.305Z,6.70
2023-05-24T07:43:52.201Z,9.70
2023-05-24T07:46:18.841Z,6.67
2023-05-24T07:49:01.450Z,6.83
2023-05-24T07:51:28.248Z,5.23
2023-05-24T07:53:55.050Z,6.03
2023-05-24T07:56:21.584Z,5.63
2023-05-24T07:58:49.457Z,6.73
2023-05-24T08:01:16.054Z,5.47
2023-05-24T08:03:42.721Z,5.87
2023-05-24T08:06:11.975Z,5.07
2023-05-24T08:08:38.989Z,5.40
2023-05-24T08:11:05.523Z,5.40
2023-05-24T08:13:32.538Z,5.27
2023-05-24T08:16:02.079Z,4.90
2023-05-24T08:18:28.953Z,5.03
2023-05-24T08:20:55.539Z,4.77
2023-05-24T08:23:22.088Z,5.43
2023-05-24T08:25:48.906Z,4.43
2023-05-24T08:28:17.112Z,4.73
2023-05-24T08:30:43.842Z,4.63
2023-05-24T08:33:10.694Z,4.50
2023-05-24T08:35:37.644Z,5.07
2023-05-24T08:38:04.203Z,4.10
2023-05-24T08:40:30.796Z,4.63
2023-05-24T08:42:59.525Z,4.40
2023-05-24T08:45:26.484Z,4.27
2023-05-24T08:47:54.414Z,3.87
2023-05-24T08:50:21.416Z,4.27
2023-05-24T08:52:48.040Z,4.57
2023-05-24T08:55:15.051Z,4.63
2023-05-24T08:57:42.032Z,4.40
2023-05-24T09:00:11.514Z,4.10
2023-05-24T09:02:44.702Z,4.17
2023-05-24T09:05:12.086Z,4.20
2023-05-24T09:07:39.120Z,4.20
2023-05-24T09:10:07.039Z,4.20
2023-05-24T09:12:38.039Z,4.67
2023-05-24T09:15:06.602Z,4.30
2023-05-24T09:17:34.757Z,4.33
2023-05-24T09:20:01.601Z,4.33
2023-05-24T09:22:30.911Z,4.57
2023-05-24T09:24:58.256Z,5.00
2023-05-24T09:27:24.779Z,4.40
2023-05-24T09:29:54.286Z,4.37
2023-05-24T09:32:24.605Z,4.50
2023-05-24T09:34:54.699Z,4.80
2023-05-24T09:37:28.809Z,3.13
2023-05-24T09:39:58.575Z,4.17
2023-05-24T09:42:26.832Z,4.63
2023-05-24T09:45:00.869Z,4.10
2023-05-24T09:47:35.103Z,4.13
2023-05-24T09:50:03.521Z,4.20
2023-05-24T09:52:30.161Z,4.13
2023-05-24T09:54:56.823Z,4.23
2023-05-24T09:57:23.812Z,3.50
2023-05-24T09:59:50.855Z,3.60
2023-05-24T10:02:20.566Z,3.70
2023-05-24T10:04:48.014Z,3.57
2023-05-24T10:07:15.639Z,3.70
2023-05-24T10:09:42.815Z,3.40
2023-05-24T10:12:09.391Z,3.73
2023-05-24T10:14:39.135Z,3.60
2023-05-24T10:17:06.972Z,3.97
2023-05-24T10:19:34.020Z,3.70
2023-05-24T10:22:01.560Z,4.10
2023-05-24T10:24:31.458Z,4.10
2023-05-24T10:26:59.171Z,3.60
2023-05-24T10:29:46.111Z,3.60
2023-05-24T10:32:14.635Z,3.60
2023-05-24T10:34:41.760Z,2.90
2023-05-24T10:37:09.795Z,3.53
2023-05-24T10:39:36.400Z,3.57
2023-05-24T10:42:04.526Z,3.13
2023-05-24T10:44:32.451Z,3.07
2023-05-24T10:47:03.430Z,3.60
2023-05-24T10:49:30.051Z,4.47
2023-05-24T10:52:07.211Z,3.70
2023-05-24T10:54:33.910Z,4.17
2023-05-24T10:57:03.566Z,4.13
2023-05-24T10:59:40.143Z,3.77
2023-05-24T11:02:10.114Z,3.97
2023-05-24T11:04:38.074Z,3.97
2023-05-24T11:07:05.730Z,3.67
2023-05-24T11:09:35.880Z,3.47
2023-05-24T11:12:04.401Z,3.23
2023-05-24T11:14:32.161Z,3.17
2023-05-24T11:17:00.446Z,3.33
2023-05-24T11:19:32.797Z,3.50
2023-05-24T11:21:59.983Z,3.40
2023-05-24T11:24:27.142Z,3.33
2023-05-24T11:26:54.169Z,3.40
2023-05-24T11:29:24.311Z,3.13
2023-05-24T11:31:55.286Z,3.63
2023-05-24T11:34:22.041Z,3.03
2023-05-24T11:36:48.904Z,3.43
2023-05-24T11:39:16.571Z,3.00
2023-05-24T11:41:43.397Z,3.27
2023-05-24T11:44:10.852Z,3.67
2023-05-24T11:46:39.388Z,3.40
2023-05-24T11:49:07.173Z,2.87
2023-05-24T11:51:34.573Z,3.33
2023-05-24T11:54:01.474Z,3.90
2023-05-24T11:56:32.301Z,3.57
2023-05-24T11:59:10.341Z,3.73
2023-05-24T12:01:38.322Z,3.33
2023-05-24T12:04:10.973Z,3.77
2023-05-24T12:06:41.725Z,3.70
2023-05-24T12:09:09.139Z,3.83
2023-05-24T12:11:39.693Z,3.67
2023-05-24T12:14:06.395Z,3.27
2023-05-24T12:16:33.546Z,3.50
2023-05-24T12:19:06.929Z,3.70
2023-05-24T12:21:41.668Z,3.63
2023-05-24T12:24:12.325Z,3.33
2023-05-24T12:26:43.184Z,3.30
2023-05-24T12:29:11.782Z,3.73
2023-05-24T12:31:45.090Z,3.57
2023-05-24T12:34:13.049Z,3.57
2023-05-24T12:36:40.087Z,3.50
2023-05-24T12:39:31.270Z,3.47
2023-05-24T12:41:58.964Z,4.53
2023-05-24T12:44:26.060Z,4.00
2023-05-24T12:47:11.138Z,3.90
2023-05-24T12:49:37.813Z,4.63
2023-05-24T12:52:04.723Z,4.00
2023-05-24T12:54:34.731Z,3.67
2023-05-24T12:57:02.935Z,4.27
2023-05-24T12:59:29.727Z,4.20
2023-05-24T13:01:56.645Z,4.20
2023-05-24T13:04:24.523Z,3.33
2023-05-24T13:06:51.251Z,3.50
2023-05-24T13:09:22.052Z,3.83
2023-05-24T13:11:48.667Z,5.17
2023-05-24T13:14:16.948Z,3.80
2023-05-24T13:16:44.508Z,3.93
2023-05-24T13:19:13.944Z,4.07
2023-05-24T13:21:40.688Z,3.87
2023-05-24T13:24:09.270Z,4.07
2023-05-24T13:26:39.112Z,3.90
2023-05-24T13:31:38.296Z,3.47
2023-05-24T13:34:05.338Z,3.90
2023-05-24T13:36:32.295Z,4.00
2023-05-24T13:39:13.495Z,3.90
2023-05-24T13:41:48.464Z,3.47
2023-05-24T13:44:15.825Z,3.90
2023-05-24T13:46:44.609Z,4.40
2023-05-24T13:49:11.560Z,3.40
2023-05-24T13:51:38.986Z,3.33
2023-05-24T13:54:07.642Z,3.50
2023-05-24T13:56:35.182Z,2.93
2023-05-24T13:59:04.051Z,3.20
2023-05-24T14:01:31.380Z,3.40
2023-05-24T14:03:58.021Z,3.23
2023-05-24T14:06:24.689Z,3.83
2023-05-24T14:08:59.638Z,3.70
2023-05-24T14:11:26.901Z,3.47
2023-05-24T14:16:23.591Z,3.70
2023-05-24T14:18:51.870Z,3.77
2023-05-24T14:21:19.696Z,3.70
2023-05-24T14:23:46.353Z,4.07
2023-05-24T14:26:13.187Z,3.50
2023-05-24T14:28:39.779Z,3.50
2023-05-24T14:31:06.522Z,3.30
2023-05-24T14:33:33.109Z,3.83
2023-05-24T14:35:59.694Z,3.53
2023-05-24T14:38:27.323Z,3.30
2023-05-24T14:40:54.220Z,3.40
2023-05-24T14:43:20.854Z,3.70
2023-05-24T14:45:47.688Z,3.20
2023-05-24T14:48:16.224Z,3.27
2023-05-24T14:50:43.468Z,3.10
2023-05-24T14:53:12.644Z,3.17
2023-05-24T14:55:41.139Z,3.23
2023-05-24T14:58:09.471Z,3.23
2023-05-24T15:00:36.888Z,3.80
2023-05-24T15:03:03.662Z,3.90
2023-05-24T15:05:30.403Z,3.50
2023-05-24T15:07:59.332Z,3.77
2023-05-24T15:10:25.905Z,3.33
2023-05-24T15:12:52.596Z,3.50
2023-05-24T15:15:20.410Z,3.90
2023-05-24T15:17:47.473Z,3.83
2023-05-24T15:20:14.106Z,3.67
2023-05-24T15:22:40.675Z,3.60
2023-05-24T15:25:07.776Z,3.80
2023-05-24T15:27:34.544Z,3.53
2023-05-24T15:30:01.132Z,4.20
2023-05-24T15:32:44.832Z,3.20
2023-05-24T15:35:11.689Z,3.43
2023-05-24T15:37:38.594Z,3.73
2023-05-24T15:40:05.851Z,3.27
2023-05-24T15:42:32.399Z,2.90
2023-05-24T15:45:24.579Z,3.87
2023-05-24T15:47:51.323Z,3.93
2023-05-24T15:50:23.625Z,3.40
2023-05-24T15:52:56.475Z,3.80
2023-05-24T15:55:22.980Z,3.87
2023-05-24T15:57:59.793Z,3.80
2023-05-24T16:00:26.453Z,4.13
2023-05-24T16:02:53.756Z,4.10
2023-05-24T16:05:21.181Z,3.40
2023-05-24T16:07:47.875Z,3.47
2023-05-24T16:10:14.425Z,3.50
2023-05-24T16:12:41.062Z,5.83
2023-05-24T16:15:07.955Z,5.90
2023-05-24T16:17:34.534Z,3.70
2023-05-24T16:20:01.666Z,3.63
2023-05-24T16:22:28.370Z,4.30
2023-05-24T16:24:57.249Z,3.73
2023-05-24T16:27:23.986Z,4.40
2023-05-24T16:29:50.709Z,4.47
2023-05-24T16:32:17.374Z,4.30
2023-05-24T16:34:56.049Z,3.80
2023-05-24T16:37:23.878Z,3.53
2023-05-24T16:39:50.596Z,3.43
2023-05-24T16:42:17.134Z,3.90
2023-05-24T16:44:43.774Z,3.70
2023-05-24T16:47:10.490Z,4.07
2023-05-24T16:49:37.086Z,4.40
2023-05-24T16:52:03.676Z,3.33
2023-05-24T16:54:30.234Z,3.93
2023-05-24T16:56:56.921Z,5.47
2023-05-24T16:59:23.487Z,4.50
2023-05-24T17:01:51.716Z,3.97
2023-05-24T17:04:19.024Z,4.07
2023-05-24T17:06:45.687Z,4.07
2023-05-24T17:09:12.293Z,3.60
2023-05-24T17:11:38.977Z,4.67
2023-05-24T17:14:05.527Z,4.10
2023-05-24T17:16:32.141Z,3.97
2023-05-24T17:18:58.748Z,3.77
2023-05-24T17:21:28.194Z,4.20
2023-05-24T17:23:55.678Z,4.00
2023-05-24T17:26:26.434Z,3.83
2023-05-24T17:28:54.365Z,3.40
2023-05-24T17:31:21.153Z,3.67
2023-05-24T17:33:47.771Z,3.87
2023-05-24T17:36:15.094Z,4.23
2023-05-24T17:38:42.103Z,3.53
2023-05-24T17:41:10.017Z,3.50
2023-05-24T17:43:39.174Z,4.23
2023-05-24T17:46:09.589Z,3.50
2023-05-24T17:48:37.001Z,3.87
2023-05-24T17:51:04.739Z,4.07
2023-05-24T17:53:32.497Z,3.37
2023-05-24T17:56:02.020Z,3.93
2023-05-24T17:58:30.931Z,4.10
2023-05-24T18:00:57.518Z,3.70
2023-05-24T18:03:24.350Z,3.90
2023-05-24T18:05:54.920Z,3.60
2023-05-24T18:08:21.771Z,3.67
2023-05-24T18:10:48.387Z,3.43
2023-05-24T18:13:14.936Z,3.33
2023-05-24T18:15:41.737Z,3.70
2023-05-24T18:18:08.490Z,3.47
2023-05-24T18:20:35.734Z,3.60
2023-05-24T18:23:02.496Z,3.50
2023-05-24T18:25:29.065Z,3.40
2023-05-24T18:27:55.822Z,3.77
2023-05-24T18:30:22.391Z,3.47
2023-05-24T18:33:04.529Z,3.73
2023-05-24T18:35:33.920Z,3.80
2023-05-24T18:38:00.517Z,3.60
2023-05-24T18:40:27.116Z,3.40
2023-05-24T18:42:55.682Z,3.83
2023-05-24T18:45:22.939Z,3.80
2023-05-24T18:47:49.570Z,3.57
2023-05-24T18:50:16.655Z,3.60
2023-05-24T18:52:43.170Z,3.37
2023-05-24T18:55:12.673Z,3.37
2023-05-24T18:57:39.498Z,3.57
2023-05-24T19:00:07.455Z,3.43
2023-05-24T19:02:41.015Z,3.47
2023-05-24T19:05:08.007Z,3.47
2023-05-24T19:07:35.162Z,3.77
2023-05-24T19:10:01.866Z,4.03
2023-05-24T19:12:28.404Z,3.50
2023-05-24T19:14:55.004Z,3.70
2023-05-24T19:17:24.272Z,3.97
2023-05-24T19:19:51.275Z,3.63
2023-05-24T19:22:17.897Z,3.80
2023-05-24T19:24:44.476Z,3.57
2023-05-24T19:27:11.173Z,3.60
2023-05-24T19:29:38.508Z,3.20
2023-05-24T19:32:05.280Z,3.30
2023-05-24T19:34:33.211Z,3.80
2023-05-24T19:36:59.730Z,3.70
2023-05-24T19:39:26.273Z,3.53
2023-05-24T19:41:52.865Z,3.90
2023-05-24T19:44:19.475Z,3.60
2023-05-24T19:46:46.275Z,3.37
2023-05-24T19:49:13.772Z,4.20
2023-05-24T19:51:40.430Z,3.70
2023-05-24T19:54:09.390Z,3.20
2023-05-24T19:56:36.347Z,3.77
2023-05-24T19:59:03.015Z,3.77
2023-05-24T20:01:32.613Z,3.30
2023-05-24T20:03:59.220Z,3.40
2023-05-24T20:06:26.497Z,3.70
2023-05-24T20:08:53.128Z,3.50
2023-05-24T20:11:19.706Z,3.50
2023-05-24T20:13:46.272Z,3.47
2023-05-24T20:16:13.421Z,3.60
2023-05-24T20:18:40.025Z,3.40
2023-05-24T20:21:06.624Z,3.70
2023-05-24T20:23:33.143Z,3.60
2023-05-24T20:25:59.703Z,3.30
2023-05-24T20:28:31.493Z,3.53
2023-05-24T20:30:58.691Z,3.40
2023-05-24T20:33:25.264Z,3.80
2023-05-24T20:35:53.197Z,3.30
2023-05-24T20:38:20.076Z,3.50
2023-05-24T20:40:46.735Z,3.40
2023-05-24T20:43:13.309Z,3.50
2023-05-24T20:45:40.030Z,3.70
2023-05-24T20:48:06.828Z,3.47
2023-05-24T20:50:33.526Z,3.40
2023-05-24T20:53:00.081Z,3.73
2023-05-24T20:55:27.222Z,3.77
2023-05-24T20:57:54.029Z,4.17
2023-05-24T21:00:20.605Z,4.13
2023-05-24T21:02:47.482Z,3.90
2023-05-24T21:05:14.152Z,3.60
2023-05-24T21:07:40.785Z,3.97
2023-05-24T21:10:07.864Z,3.90
2023-05-24T21:12:34.444Z,3.43
2023-05-24T21:15:01.333Z,3.90
2023-05-24T21:17:27.926Z,3.83
2023-05-24T21:19:54.841Z,3.90
2023-05-24T21:22:21.480Z,3.77
2023-05-24T21:24:48.051Z,4.10
2023-05-24T21:27:17.060Z,3.83
2023-05-24T21:29:43.613Z,4.20
2023-05-24T21:32:10.551Z,3.93
2023-05-24T21:34:37.168Z,4.53
2023-05-24T21:37:05.164Z,3.80
2023-05-24T21:39:32.304Z,3.97
2023-05-24T21:41:58.855Z,3.90
2023-05-24T21:44:25.416Z,4.10
2023-05-24T21:46:52.153Z,4.27
2023-05-24T21:49:19.139Z,4.80
2023-05-24T21:51:48.256Z,3.60
2023-05-24T21:54:15.217Z,3.77
2023-05-24T21:56:41.831Z,4.27
2023-05-24T21:59:08.381Z,3.87
2023-05-24T22:01:35.003Z,4.20
2023-05-24T22:04:01.614Z,4.70
2023-05-24T22:06:28.221Z,3.90
2023-05-24T22:08:55.857Z,4.03
2023-05-24T22:11:22.509Z,3.63
2023-05-24T22:13:49.084Z,4.23
2023-05-24T22:16:15.715Z,4.57
2023-05-24T22:18:42.269Z,4.23
2023-05-24T22:21:08.844Z,3.67
2023-05-24T22:23:35.381Z,4.50
2023-05-24T22:26:02.036Z,4.43
2023-05-24T22:28:29.089Z,4.10
2023-05-24T22:30:55.653Z,4.30
2023-05-24T22:33:22.173Z,3.97
2023-05-24T22:35:48.759Z,4.40
2023-05-24T22:38:15.288Z,4.10
2023-05-24T22:40:42.379Z,4.43
2023-05-24T22:43:11.320Z,3.93
2023-05-24T22:45:37.874Z,4.90
2023-05-24T22:48:06.917Z,4.80
2023-05-24T22:50:33.841Z,4.40
2023-05-24T22:53:00.380Z,4.23
2023-05-24T22:55:26.919Z,3.87
2023-05-24T22:57:53.636Z,3.90
2023-05-24T23:00:20.773Z,3.67
2023-05-24T23:02:47.456Z,4.20
2023-05-24T23:05:14.152Z,4.50
2023-05-24T23:07:40.796Z,4.23
2023-05-24T23:10:08.354Z,4.30
2023-05-24T23:12:35.967Z,4.10
2023-05-24T23:15:02.500Z,4.13
2023-05-24T23:17:29.132Z,3.90
2023-05-24T23:19:55.764Z,3.30
2023-05-24T23:22:23.879Z,3.77
2023-05-24T23:24:50.885Z,4.03
2023-05-24T23:27:17.599Z,3.87
2023-05-24T23:29:44.203Z,3.87
2023-05-24T23:32:12.484Z,3.30
2023-05-24T23:34:41.371Z,3.97
2023-05-24T23:37:07.940Z,4.03
2023-05-24T23:39:34.829Z,3.10
2023-05-24T23:42:02.643Z,4.13
2023-05-24T23:44:29.606Z,4.03
2023-05-24T23:46:56.533Z,4.50
2023-05-24T23:49:23.201Z,5.10
2023-05-24T23:51:49.794Z,4.00
2023-05-24T23:54:16.375Z,3.83
2023-05-24T23:56:42.969Z,3.77
2023-05-24T23:59:09.565Z,4.00
